| time (UTC) | temp F | wind direction | speed MPH | gust MPH | rain 1hr in | rain 24hr in | rain mn in | humidity % | barometer mb |
| 20260509054003 | 53 | 189 | 4.0 | 7.0 | 0.00 | 0.00 | 0.00 | 86 | 1005.9 |
| 20260509053203 | 53 | 190 | 5.0 | 6.0 | 0.00 | 0.00 | 0.00 | 86 | 1005.9 |
| 20260509052403 | 53 | 188 | 4.0 | 8.0 | 0.00 | 0.00 | 0.00 | 86 | 1006.0 |
| 20260509051814 | 53 | 189 | 4.0 | 8.0 | 0.00 | 0.00 | 0.00 | 85 | 1006.0 |
| 20260509050803 | 53 | 179 | 4.0 | 7.0 | 0.00 | 0.00 | 0.00 | 84 | 1006.0 |
| 20260509050003 | 53 | 173 | 5.0 | 8.0 | 0.00 | 0.00 | 0.00 | 84 | 1006.1 |
| 20260509045816 | 53 | 173 | 5.0 | 8.0 | 0.00 | 0.00 | 0.00 | 83 | 1006.1 |
| 20260509045014 | 53 | 173 | 5.0 | 8.0 | 0.00 | 0.00 | 0.00 | 83 | 1006.0 |
| 20260509044213 | 54 | 181 | 5.0 | 8.0 | 0.00 | 0.00 | 0.00 | 82 | 1006.0 |
| 20260509043417 | 54 | 186 | 4.0 | 8.0 | 0.00 | 0.00 | 0.00 | 81 | 1006.2 |
| 20260509042616 | 54 | 188 | 4.0 | 6.0 | 0.00 | 0.00 | 0.00 | 81 | 1006.3 |
| 20260509041603 | 54 | 179 | 4.0 | 8.0 | 0.00 | 0.00 | 0.00 | 80 | 1006.4 |
| 20260509040804 | 54 | 173 | 5.0 | 8.0 | 0.00 | 0.00 | 0.00 | 80 | 1006.4 |
| 20260509040006 | 54 | 178 | 5.0 | 7.0 | 0.00 | 0.00 | 0.00 | 79 | 1006.5 |
| 20260509035603 | 55 | 184 | 4.0 | 7.0 | 0.00 | 0.00 | 0.00 | 78 | 1006.5 |
| 20260509035015 | 55 | 186 | 4.0 | 7.0 | 0.00 | 0.00 | 0.00 | 78 | 1006.6 |
| 20260509034003 | 55 | 190 | 4.0 | 7.0 | 0.00 | 0.00 | 0.00 | 77 | 1006.7 |
| 20260509033203 | 55 | 192 | 4.0 | 7.0 | 0.00 | 0.00 | 0.00 | 77 | 1006.7 |
| 20260509032403 | 55 | 192 | 4.0 | 7.0 | 0.00 | 0.00 | 0.00 | 77 | 1006.7 |
| 20260509031815 | 56 | 188 | 5.0 | 7.0 | 0.00 | 0.00 | 0.00 | 76 | 1006.9 |
| 20260509030803 | 56 | 186 | 4.0 | 8.0 | 0.00 | 0.00 | 0.00 | 77 | 1007.0 |
| 20260509030003 | 56 | 188 | 4.0 | 6.0 | 0.00 | 0.00 | 0.00 | 77 | 1007.0 |
| 20260509025817 | 56 | 191 | 4.0 | 6.0 | 0.00 | 0.00 | 0.00 | 77 | 1006.9 |
| 20260509024803 | 56 | 191 | 4.0 | 7.0 | 0.00 | 0.00 | 0.00 | 77 | 1006.9 |
| 20260509024003 | 56 | 191 | 4.0 | 6.0 | 0.00 | 0.00 | 0.00 | 76 | 1007.0 |
| 20260509023413 | 57 | 194 | 4.0 | 7.0 | 0.00 | 0.00 | 0.00 | 77 | 1007.0 |
| 20260509022403 | 57 | 184 | 5.0 | 7.0 | 0.00 | 0.00 | 0.00 | 77 | 1007.0 |
| 20260509021603 | 57 | 175 | 6.0 | 9.0 | 0.00 | 0.00 | 0.00 | 78 | 1007.0 |
| 20260509020803 | 56 | 167 | 4.0 | 8.0 | 0.00 | 0.00 | 0.00 | 80 | 1007.0 |
| 20260509020213 | 56 | 172 | 1.0 | 5.0 | 0.00 | 0.00 | 0.00 | 79 | 1007.0 |
| 20260509015812 | 56 | 0 | 0.0 | 0.0 | 0.00 | 0.00 | 0.00 | 78 | 1006.9 |
| 20260509015016 | 56 | 0 | 0.0 | 0.0 | 0.00 | 0.00 | 0.00 | 77 | 1006.9 |
| 20260509014003 | 57 | 0 | 0.0 | 0.0 | 0.00 | 0.00 | 0.00 | 76 | 1007.0 |
| 20260509013203 | 57 | 0 | 0.0 | 0.0 | 0.00 | 0.00 | 0.00 | 75 | 1006.8 |
| 20260509012612 | 57 | 0 | 0.0 | 0.0 | 0.00 | 0.00 | 0.00 | 75 | 1006.8 |
| 20260509011603 | 58 | 0 | 0.0 | 0.0 | 0.00 | 0.00 | 0.00 | 74 | 1006.8 |
| 20260509011015 | 58 | 0 | 0.0 | 0.0 | 0.00 | 0.00 | 0.00 | 73 | 1006.8 |
| 20260509010214 | 58 | 188 | 1.0 | 2.0 | 0.00 | 0.00 | 0.00 | 73 | 1006.7 |
| 20260509005603 | 58 | 188 | 2.0 | 3.0 | 0.00 | 0.00 | 0.00 | 72 | 1006.7 |
| 20260509004803 | 59 | 192 | 2.0 | 4.0 | 0.00 | 0.00 | 0.00 | 71 | 1006.7 |
| 20260509004003 | 59 | 179 | 2.0 | 5.0 | 0.00 | 0.00 | 0.00 | 70 | 1006.7 |
| 20260509003203 | 60 | 175 | 4.0 | 6.0 | 0.00 | 0.01 | 0.00 | 70 | 1006.7 |
| 20260509002613 | 60 | 174 | 4.0 | 6.0 | 0.00 | 0.01 | 0.00 | 69 | 1006.7 |
| 20260509001603 | 60 | 169 | 5.0 | 7.0 | 0.00 | 0.01 | 0.00 | 67 | 1006.7 |
| 20260509000803 | 60 | 164 | 5.0 | 7.0 | 0.00 | 0.03 | 0.00 | 67 | 1006.7 |
| 20260509000003 | 61 | 166 | 5.0 | 8.0 | 0.00 | 0.04 | 0.00 | 66 | 1006.4 |
| 20260508235603 | 61 | 176 | 5.0 | 8.0 | 0.00 | 0.06 | 0.00 | 65 | 1006.4 |
| 20260508234803 | 61 | 177 | 4.0 | 7.0 | 0.00 | 0.08 | 0.00 | 63 | 1006.7 |
| 20260508234216 | 61 | 188 | 2.0 | 5.0 | 0.00 | 0.09 | 0.00 | 64 | 1006.7 |
| 20260508233415 | 61 | 200 | 2.0 | 4.0 | 0.00 | 0.10 | 0.00 | 62 | 1006.7 |
| 20260508232614 | 62 | 163 | 0.0 | 2.0 | 0.00 | 0.10 | 0.00 | 59 | 1006.7 |
| 20260508231813 | 62 | 163 | 0.0 | 1.0 | 0.00 | 0.10 | 0.00 | 58 | 1006.7 |
| 20260508231016 | 62 | 189 | 0.0 | 1.0 | 0.00 | 0.10 | 0.00 | 57 | 1006.7 |
| 20260508230215 | 62 | 0 | 0.0 | 0.0 | 0.00 | 0.10 | 0.00 | 60 | 1006.7 |
| 20260508225814 | 62 | 202 | 0.0 | 3.0 | 0.00 | 0.10 | 0.00 | 57 | 1006.8 |
| 20260508224803 | 62 | 186 | 2.0 | 6.0 | 0.00 | 0.10 | 0.00 | 56 | 1006.8 |
| 20260508224217 | 62 | 213 | 1.0 | 4.0 | 0.00 | 0.10 | 0.00 | 57 | 1006.8 |
| 20260508223416 | 62 | 181 | 1.0 | 4.0 | 0.00 | 0.10 | 0.00 | 58 | 1006.8 |
| 20260508222403 | 62 | 190 | 2.0 | 5.0 | 0.00 | 0.10 | 0.00 | 57 | 1006.9 |
| 20260508221813 | 62 | 186 | 2.0 | 6.0 | 0.00 | 0.10 | 0.00 | 53 | 1006.9 |
| 20260508221017 | 62 | 198 | 2.0 | 4.0 | 0.00 | 0.10 | 0.00 | 55 | 1006.9 |
| 20260508220003 | 62 | 203 | 2.0 | 5.0 | 0.00 | 0.10 | 0.00 | 57 | 1006.9 |
| 20260508215815 | 62 | 187 | 2.0 | 6.0 | 0.00 | 0.10 | 0.00 | 59 | 1006.9 |
| 20260508214803 | 61 | 171 | 4.0 | 11.0 | 0.00 | 0.10 | 0.00 | 57 | 1006.9 |
| 20260508214212 | 62 | 175 | 5.0 | 11.0 | 0.00 | 0.10 | 0.00 | 60 | 1006.9 |
| 20260508213203 | 61 | 165 | 4.0 | 7.0 | 0.00 | 0.10 | 0.00 | 61 | 1006.9 |
| 20260508212615 | 61 | 186 | 3.0 | 7.0 | 0.00 | 0.10 | 0.00 | 61 | 1007.0 |
| 20260508211814 | 61 | 184 | 4.0 | 9.0 | 0.00 | 0.10 | 0.00 | 61 | 1007.2 |
| 20260508210803 | 61 | 202 | 2.0 | 6.0 | 0.00 | 0.10 | 0.00 | 61 | 1007.3 |
| 20260508210216 | 60 | 189 | 3.0 | 7.0 | 0.00 | 0.10 | 0.00 | 62 | 1007.3 |
| 20260508205816 | 60 | 181 | 4.0 | 8.0 | 0.00 | 0.10 | 0.00 | 63 | 1007.3 |
| 20260508204803 | 60 | 186 | 6.0 | 11.0 | 0.00 | 0.10 | 0.00 | 64 | 1007.4 |
| 20260508204003 | 60 | 179 | 6.0 | 11.0 | 0.00 | 0.10 | 0.00 | 65 | 1007.6 |
| 20260508203417 | 60 | 178 | 7.0 | 11.0 | 0.00 | 0.10 | 0.00 | 62 | 1007.7 |
| 20260508202616 | 61 | 184 | 4.0 | 8.0 | 0.00 | 0.10 | 0.00 | 63 | 1007.8 |
| 20260508201814 | 61 | 197 | 3.0 | 6.0 | 0.00 | 0.10 | 0.00 | 62 | 1007.8 |
| 20260508200803 | 60 | 181 | 5.0 | 8.0 | 0.00 | 0.10 | 0.00 | 64 | 1007.9 |
| 20260508200217 | 60 | 179 | 6.0 | 10.0 | 0.00 | 0.10 | 0.00 | 64 | 1008.1 |
| 20260508195603 | 60 | 176 | 6.0 | 10.0 | 0.00 | 0.10 | 0.00 | 64 | 1008.1 |
| 20260508194803 | 60 | 182 | 7.0 | 12.0 | 0.00 | 0.10 | 0.00 | 62 | 1008.3 |
| 20260508194214 | 60 | 177 | 7.0 | 12.0 | 0.00 | 0.10 | 0.00 | 62 | 1008.4 |
| 20260508193203 | 60 | 180 | 7.0 | 12.0 | 0.00 | 0.10 | 0.00 | 62 | 1008.4 |
| 20260508192616 | 60 | 183 | 6.0 | 12.0 | 0.00 | 0.10 | 0.00 | 64 | 1008.4 |
| 20260508191815 | 60 | 179 | 8.0 | 12.0 | 0.00 | 0.10 | 0.00 | 66 | 1008.4 |
| 20260508190803 | 60 | 177 | 8.0 | 12.0 | 0.00 | 0.10 | 0.00 | 66 | 1008.8 |
| 20260508190213 | 59 | 177 | 9.0 | 12.0 | 0.00 | 0.10 | 0.00 | 67 | 1008.9 |
| 20260508185603 | 59 | 184 | 8.0 | 12.0 | 0.00 | 0.10 | 0.00 | 68 | 1008.9 |
| 20260508185016 | 59 | 182 | 7.0 | 12.0 | 0.00 | 0.10 | 0.00 | 68 | 1009.0 |
| 20260508184003 | 59 | 172 | 8.0 | 12.0 | 0.00 | 0.10 | 0.00 | 70 | 1009.1 |
| 20260508183413 | 60 | 169 | 8.0 | 12.0 | 0.00 | 0.10 | 0.00 | 71 | 1009.2 |
| 20260508182617 | 60 | 170 | 6.0 | 11.0 | 0.00 | 0.10 | 0.00 | 68 | 1009.3 |
| 20260508181603 | 60 | 195 | 5.0 | 11.0 | 0.00 | 0.10 | 0.00 | 67 | 1009.3 |
| 20260508180803 | 60 | 175 | 6.0 | 11.0 | 0.00 | 0.10 | 0.00 | 70 | 1009.4 |
| 20260508180213 | 60 | 179 | 6.0 | 11.0 | 0.00 | 0.10 | 0.00 | 70 | 1009.5 |
| 20260508175812 | 59 | 180 | 5.0 | 10.0 | 0.00 | 0.10 | 0.00 | 69 | 1009.5 |
| 20260508175016 | 59 | 192 | 5.0 | 9.0 | 0.00 | 0.10 | 0.00 | 67 | 1009.6 |
| 20260508174003 | 59 | 188 | 5.0 | 9.0 | 0.00 | 0.10 | 0.00 | 67 | 1009.7 |
| 20260508173203 | 59 | 182 | 6.0 | 12.0 | 0.00 | 0.10 | 0.00 | 70 | 1009.9 |
| 20260508172403 | 59 | 186 | 5.0 | 10.0 | 0.00 | 0.10 | 0.00 | 71 | 1010.0 |
| 20260508171603 | 59 | 184 | 5.0 | 9.0 | 0.00 | 0.10 | 0.00 | 71 | 1010.1 |
| 20260508170803 | 58 | 178 | 6.0 | 10.0 | 0.00 | 0.10 | 0.00 | 67 | 1010.5 |
| 20260508170003 | 58 | 179 | 4.0 | 10.0 | 0.00 | 0.10 | 0.00 | 70 | 1010.5 |
| 20260508165813 | 58 | 178 | 4.0 | 10.0 | 0.00 | 0.10 | 0.00 | 70 | 1010.5 |
| 20260508165017 | 58 | 174 | 5.0 | 10.0 | 0.00 | 0.10 | 0.00 | 70 | 1010.6 |
| 20260508164003 | 58 | 181 | 4.0 | 11.0 | 0.00 | 0.10 | 0.00 | 69 | 1010.6 |
| 20260508163203 | 58 | 207 | 2.0 | 5.0 | 0.00 | 0.10 | 0.00 | 72 | 1010.7 |
| 20260508162403 | 57 | 198 | 3.0 | 6.0 | 0.00 | 0.10 | 0.00 | 70 | 1010.7 |
| 20260508161603 | 57 | 193 | 3.0 | 6.0 | 0.00 | 0.10 | 0.00 | 72 | 1010.8 |
| 20260508160803 | 57 | 194 | 3.0 | 7.0 | 0.00 | 0.10 | 0.00 | 70 | 1011.1 |
| 20260508160003 | 57 | 200 | 3.0 | 7.0 | 0.00 | 0.10 | 0.00 | 72 | 1011.1 |
| 20260508155814 | 57 | 199 | 3.0 | 7.0 | 0.00 | 0.10 | 0.00 | 73 | 1011.2 |
| 20260508154803 | 56 | 181 | 4.0 | 8.0 | 0.00 | 0.10 | 0.00 | 75 | 1011.1 |
| 20260508154003 | 55 | 191 | 3.0 | 7.0 | 0.00 | 0.10 | 0.00 | 78 | 1011.1 |
| 20260508153415 | 55 | 193 | 3.0 | 7.0 | 0.00 | 0.10 | 0.00 | 80 | 1011.1 |
| 20260508152403 | 54 | 199 | 3.0 | 6.0 | 0.00 | 0.10 | 0.00 | 80 | 1011.1 |
| 20260508151812 | 54 | 191 | 4.0 | 8.0 | 0.00 | 0.10 | 0.00 | 82 | 1011.1 |
| 20260508151016 | 54 | 190 | 3.0 | 8.0 | 0.00 | 0.10 | 0.00 | 84 | 1011.1 |
| 20260508150215 | 53 | 199 | 3.0 | 6.0 | 0.00 | 0.10 | 0.00 | 84 | 1011.2 |
| 20260508145814 | 53 | 195 | 3.0 | 5.0 | 0.00 | 0.10 | 0.00 | 84 | 1011.2 |
| 20260508144803 | 52 | 189 | 3.0 | 6.0 | 0.00 | 0.10 | 0.00 | 86 | 1011.2 |
| 20260508144003 | 52 | 184 | 4.0 | 7.0 | 0.00 | 0.10 | 0.00 | 87 | 1011.2 |
| 20260508143203 | 51 | 173 | 5.0 | 7.0 | 0.00 | 0.10 | 0.00 | 89 | 1011.2 |
| 20260508142403 | 51 | 169 | 6.0 | 8.0 | 0.00 | 0.10 | 0.00 | 89 | 1011.2 |
| 20260508141603 | 51 | 172 | 4.0 | 7.0 | 0.00 | 0.10 | 0.00 | 89 | 1011.1 |
| 20260508140803 | 50 | 181 | 3.0 | 6.0 | 0.00 | 0.10 | 0.00 | 89 | 1011.2 |
| 20260508140216 | 50 | 183 | 3.0 | 6.0 | 0.00 | 0.10 | 0.00 | 90 | 1011.3 |
| 20260508135815 | 50 | 192 | 3.0 | 6.0 | 0.00 | 0.10 | 0.00 | 91 | 1011.3 |
| 20260508134803 | 49 | 182 | 4.0 | 7.0 | 0.00 | 0.10 | 0.00 | 92 | 1011.4 |
| 20260508134003 | 48 | 190 | 4.0 | 7.0 | 0.00 | 0.10 | 0.00 | 93 | 1011.7 |
| 20260508133416 | 48 | 188 | 4.0 | 7.0 | 0.00 | 0.10 | 0.00 | 94 | 1011.7 |
| 20260508132615 | 48 | 180 | 4.0 | 6.0 | 0.00 | 0.10 | 0.00 | 97 | 1011.7 |
| 20260508131603 | 47 | 185 | 3.0 | 7.0 | 0.00 | 0.10 | 0.00 | 94 | 1011.8 |
| 20260508130803 | 47 | 178 | 3.0 | 7.0 | 0.00 | 0.10 | 0.00 | 94 | 1011.8 |
| 20260508130216 | 47 | 172 | 2.0 | 5.0 | 0.00 | 0.10 | 0.00 | 95 | 1011.7 |
| 20260508125816 | 47 | 174 | 2.0 | 5.0 | 0.00 | 0.10 | 0.00 | 95 | 1011.7 |
| 20260508124803 | 46 | 174 | 2.0 | 4.0 | 0.00 | 0.10 | 0.00 | 95 | 1011.6 |
| 20260508124003 | 46 | 174 | 1.0 | 2.0 | 0.00 | 0.10 | 0.00 | 95 | 1011.6 |
| 20260508123203 | 45 | 174 | 1.0 | 4.0 | 0.00 | 0.10 | 0.00 | 95 | 1011.7 |
| 20260508122403 | 45 | 168 | 1.0 | 4.0 | 0.00 | 0.10 | 0.00 | 95 | 1011.6 |
| 20260508121814 | 44 | 165 | 1.0 | 2.0 | 0.00 | 0.10 | 0.00 | 95 | 1011.4 |
| 20260508121013 | 44 | 165 | 1.0 | 4.0 | 0.00 | 0.10 | 0.00 | 95 | 1011.4 |
| 20260508120217 | 44 | 170 | 2.0 | 5.0 | 0.00 | 0.10 | 0.00 | 95 | 1011.4 |
| 20260508115816 | 44 | 175 | 3.0 | 5.0 | 0.00 | 0.10 | 0.00 | 95 | 1011.5 |
| 20260508115015 | 44 | 173 | 3.0 | 5.0 | 0.00 | 0.10 | 0.00 | 95 | 1011.5 |
| 20260508114214 | 44 | 0 | 0.0 | 0.0 | 0.00 | 0.10 | 0.00 | 95 | 1011.3 |
| 20260508113412 | 44 | 0 | 0.0 | 0.0 | 0.00 | 0.10 | 0.00 | 95 | 1011.2 |
| 20260508112403 | 43 | 0 | 0.0 | 0.0 | 0.00 | 0.10 | 0.00 | 95 | 1011.2 |
| 20260508111603 | 43 | 0 | 0.0 | 0.0 | 0.00 | 0.10 | 0.00 | 95 | 1011.1 |
| 20260508110803 | 43 | 0 | 0.0 | 0.0 | 0.00 | 0.10 | 0.00 | 95 | 1011.2 |
| 20260508110212 | 43 | 0 | 0.0 | 0.0 | 0.00 | 0.10 | 0.00 | 95 | 1011.3 |
| 20260508105817 | 43 | 0 | 0.0 | 0.0 | 0.00 | 0.10 | 0.00 | 95 | 1011.3 |
| 20260508104803 | 42 | 171 | 1.0 | 2.0 | 0.00 | 0.10 | 0.00 | 95 | 1011.1 |
| 20260508104003 | 42 | 171 | 0.0 | 1.0 | 0.00 | 0.10 | 0.00 | 95 | 1011.0 |
| 20260508103413 | 42 | 171 | 1.0 | 4.0 | 0.00 | 0.10 | 0.00 | 95 | 1011.0 |
| 20260508102617 | 42 | 171 | 0.0 | 4.0 | 0.00 | 0.10 | 0.00 | 95 | 1011.2 |
| 20260508101603 | 42 | 0 | 0.0 | 0.0 | 0.00 | 0.10 | 0.00 | 95 | 1011.2 |
| 20260508101014 | 42 | 0 | 0.0 | 0.0 | 0.00 | 0.10 | 0.00 | 95 | 1011.1 |
| 20260508100213 | 42 | 171 | 0.0 | 2.0 | 0.00 | 0.10 | 0.00 | 94 | 1011.1 |
| 20260508095603 | 42 | 171 | 0.0 | 2.0 | 0.00 | 0.10 | 0.00 | 94 | 1011.1 |
| 20260508094803 | 42 | 174 | 1.0 | 4.0 | 0.00 | 0.10 | 0.00 | 94 | 1011.0 |
| 20260508094003 | 43 | 0 | 0.0 | 0.0 | 0.00 | 0.10 | 0.00 | 95 | 1010.8 |
| 20260508093414 | 43 | 0 | 0.0 | 0.0 | 0.00 | 0.10 | 0.00 | 95 | 1010.8 |
| 20260508092403 | 42 | 192 | 1.0 | 3.0 | 0.00 | 0.10 | 0.00 | 94 | 1010.8 |
| 20260508091816 | 42 | 192 | 2.0 | 4.0 | 0.00 | 0.10 | 0.00 | 94 | 1010.9 |
| 20260508091015 | 42 | 194 | 1.0 | 3.0 | 0.00 | 0.10 | 0.00 | 94 | 1010.9 |
| 20260508090214 | 43 | 0 | 0.0 | 0.0 | 0.00 | 0.10 | 0.00 | 95 | 1010.9 |
| 20260508085813 | 43 | 0 | 0.0 | 0.0 | 0.00 | 0.10 | 0.00 | 95 | 1011.1 |
| 20260508084803 | 43 | 0 | 0.0 | 0.0 | 0.00 | 0.10 | 0.00 | 94 | 1011.2 |
| 20260508084216 | 42 | 194 | 0.0 | 2.0 | 0.00 | 0.10 | 0.00 | 94 | 1011.2 |
| 20260508083203 | 42 | 197 | 3.0 | 4.0 | 0.00 | 0.10 | 0.00 | 93 | 1011.2 |
| 20260508082613 | 43 | 198 | 2.0 | 4.0 | 0.00 | 0.10 | 0.00 | 94 | 1011.3 |
| 20260508081817 | 43 | 198 | 2.0 | 3.0 | 0.00 | 0.10 | 0.00 | 93 | 1011.2 |
| 20260508081016 | 43 | 198 | 0.0 | 2.0 | 0.00 | 0.10 | 0.00 | 93 | 1011.2 |
| 20260508080214 | 43 | 0 | 0.0 | 0.0 | 0.00 | 0.10 | 0.00 | 93 | 1011.1 |
| 20260508075603 | 43 | 0 | 0.0 | 0.0 | 0.00 | 0.10 | 0.00 | 93 | 1011.1 |
| 20260508074803 | 43 | 198 | 1.0 | 2.0 | 0.00 | 0.10 | 0.00 | 93 | 1011.1 |
| 20260508074216 | 43 | 198 | 2.0 | 3.0 | 0.00 | 0.10 | 0.00 | 93 | 1011.2 |
| 20260508073203 | 44 | 0 | 0.0 | 0.0 | 0.00 | 0.10 | 0.00 | 94 | 1011.2 |
| 20260508072614 | 44 | 0 | 0.0 | 0.0 | 0.00 | 0.10 | 0.00 | 94 | 1011.2 |
| 20260508071603 | 44 | 0 | 0.0 | 0.0 | 0.00 | 0.10 | 0.00 | 94 | 1011.2 |
| 20260508070803 | 43 | 0 | 0.0 | 0.0 | 0.00 | 0.10 | 0.00 | 94 | 1011.3 |
| 20260508070004 | 44 | 198 | 1.0 | 3.0 | 0.00 | 0.10 | 0.00 | 94 | 1011.3 |
| 20260508065603 | 44 | 188 | 2.0 | 6.0 | 0.00 | 0.10 | 0.00 | 94 | 1011.3 |
| 20260508064803 | 44 | 176 | 3.0 | 7.0 | 0.00 | 0.10 | 0.00 | 94 | 1011.3 |
| 20260508064003 | 44 | 175 | 3.0 | 5.0 | 0.00 | 0.10 | 0.00 | 94 | 1011.3 |
| 20260508063416 | 44 | 175 | 2.0 | 5.0 | 0.00 | 0.10 | 0.00 | 94 | 1011.3 |
| 20260508062614 | 44 | 169 | 3.0 | 5.0 | 0.00 | 0.10 | 0.00 | 95 | 1011.3 |
| 20260508061603 | 44 | 165 | 2.0 | 5.0 | 0.00 | 0.10 | 0.00 | 95 | 1011.3 |
| 20260508061017 | 44 | 165 | 2.0 | 4.0 | 0.00 | 0.10 | 0.00 | 95 | 1011.3 |
| 20260508060216 | 44 | 165 | 3.0 | 5.0 | 0.00 | 0.10 | 0.00 | 95 | 1011.3 |
| 20260508055603 | 44 | 163 | 3.0 | 5.0 | 0.00 | 0.10 | 0.00 | 95 | 1011.3 |
| 20260508054803 | 44 | 161 | 3.0 | 5.0 | 0.00 | 0.10 | 0.00 | 95 | 1011.4 |
| 20260508054218 | 44 | 159 | 2.0 | 5.0 | 0.00 | 0.10 | 0.00 | 95 | 1011.4 |